createdAt,value
2018-03-06T00:00:37.141Z,993.16
2018-03-06T00:01:37.091Z,993.12
2018-03-06T00:02:37.032Z,993.15
2018-03-06T00:03:36.979Z,993.15
2018-03-06T00:04:36.926Z,993.16
2018-03-06T00:05:36.873Z,993.16
2018-03-06T00:06:36.821Z,993.17
2018-03-06T00:07:36.767Z,993.14
2018-03-06T00:08:36.719Z,993.12
2018-03-06T00:09:36.661Z,993.17
2018-03-06T00:10:36.608Z,993.12
2018-03-06T00:11:36.554Z,993.20
2018-03-06T00:12:36.500Z,993.13
2018-03-06T00:13:36.448Z,993.14
2018-03-06T00:14:36.395Z,993.17
2018-03-06T00:15:36.341Z,993.09
2018-03-06T00:16:36.288Z,993.10
2018-03-06T00:17:36.235Z,993.10
2018-03-06T00:18:36.182Z,993.07
2018-03-06T00:19:36.128Z,993.10
2018-03-06T00:20:36.075Z,993.10
2018-03-06T00:21:36.022Z,993.09
2018-03-06T00:22:35.970Z,993.08
2018-03-06T00:23:35.916Z,993.01
2018-03-06T00:24:35.864Z,993.11
2018-03-06T00:25:35.810Z,993.09
2018-03-06T00:26:35.758Z,993.03
2018-03-06T00:27:35.703Z,992.97
2018-03-06T00:28:35.650Z,992.98
2018-03-06T00:29:35.597Z,992.97
2018-03-06T00:30:35.544Z,992.96
2018-03-06T00:31:35.489Z,992.95
2018-03-06T00:32:35.437Z,992.91
2018-03-06T00:33:35.384Z,992.95
2018-03-06T00:34:35.331Z,992.91
2018-03-06T00:35:35.277Z,992.88
2018-03-06T00:36:35.224Z,992.88
2018-03-06T00:37:35.171Z,992.88
2018-03-06T00:38:35.118Z,992.90
2018-03-06T00:39:35.064Z,992.86
2018-03-06T00:40:35.012Z,992.86
2018-03-06T00:41:34.958Z,992.88
2018-03-06T00:42:34.905Z,992.81
2018-03-06T00:43:34.851Z,992.79
2018-03-06T00:44:34.798Z,992.80
2018-03-06T00:45:34.745Z,992.76
2018-03-06T00:46:34.691Z,992.78
2018-03-06T00:47:34.637Z,992.76
2018-03-06T00:48:34.585Z,992.73
2018-03-06T00:49:34.532Z,992.76
2018-03-06T00:50:34.478Z,992.76
2018-03-06T00:51:34.425Z,992.72
2018-03-06T00:52:34.372Z,992.74
2018-03-06T00:53:34.319Z,992.72
2018-03-06T00:54:34.265Z,992.69
2018-03-06T00:55:34.212Z,992.64
2018-03-06T00:56:34.159Z,992.62
2018-03-06T00:57:34.108Z,992.65
2018-03-06T00:58:34.054Z,992.67
2018-03-06T00:59:33.999Z,992.63
2018-03-06T01:00:33.946Z,992.61
2018-03-06T01:01:33.893Z,992.57
2018-03-06T01:02:33.840Z,992.55
2018-03-06T01:03:33.787Z,992.56
2018-03-06T01:04:33.734Z,992.54
2018-03-06T01:05:33.681Z,992.55
2018-03-06T01:06:33.628Z,992.55
2018-03-06T01:07:33.574Z,992.54
2018-03-06T01:08:33.520Z,992.50
2018-03-06T01:09:33.468Z,992.53
2018-03-06T01:10:33.415Z,992.50
2018-03-06T01:11:33.362Z,992.50
2018-03-06T01:12:33.311Z,992.51
2018-03-06T01:13:33.255Z,992.52
2018-03-06T01:14:33.203Z,992.53
2018-03-06T01:15:33.149Z,992.52
2018-03-06T01:16:33.094Z,992.52
2018-03-06T01:17:33.043Z,992.53
2018-03-06T01:18:32.990Z,992.50
2018-03-06T01:19:32.936Z,992.51
2018-03-06T01:20:32.884Z,992.52
2018-03-06T01:21:32.830Z,992.53
2018-03-06T01:22:32.777Z,992.52
2018-03-06T01:23:32.724Z,992.49
2018-03-06T01:24:32.673Z,992.48
2018-03-06T01:25:32.621Z,992.50
2018-03-06T01:26:32.566Z,992.47
2018-03-06T01:27:32.510Z,992.46
2018-03-06T01:28:32.464Z,992.42
2018-03-06T01:29:32.405Z,992.41
2018-03-06T01:30:32.351Z,992.45
2018-03-06T01:31:32.338Z,992.44
2018-03-06T01:32:32.246Z,992.42
2018-03-06T01:33:32.192Z,992.37
2018-03-06T01:34:32.142Z,992.37
2018-03-06T01:35:32.085Z,992.35
2018-03-06T01:36:32.032Z,992.38
2018-03-06T01:37:31.992Z,992.37
2018-03-06T01:38:31.927Z,992.31
2018-03-06T01:39:31.873Z,992.31
2018-03-06T01:40:31.820Z,992.32
2018-03-06T01:41:31.770Z,992.32
2018-03-06T01:42:31.713Z,992.31
2018-03-06T01:43:31.684Z,992.30
2018-03-06T01:44:31.607Z,992.31
2018-03-06T01:45:31.554Z,992.30
2018-03-06T01:46:31.502Z,992.27
2018-03-06T01:47:31.448Z,992.27
2018-03-06T01:48:31.396Z,992.32
2018-03-06T01:49:31.386Z,992.29
2018-03-06T01:50:31.289Z,992.26
2018-03-06T01:51:31.236Z,992.26
2018-03-06T01:52:31.182Z,992.27
2018-03-06T01:53:31.130Z,992.27
2018-03-06T01:54:31.077Z,992.23
2018-03-06T01:55:31.022Z,992.24
2018-03-06T01:56:31.011Z,992.23
2018-03-06T01:57:30.917Z,992.24
2018-03-06T01:58:30.864Z,992.23
2018-03-06T01:59:30.810Z,992.26
2018-03-06T02:00:30.756Z,992.20
2018-03-06T02:01:30.704Z,992.23
2018-03-06T02:02:30.651Z,992.24
2018-03-06T02:03:30.596Z,992.24
2018-03-06T02:04:30.543Z,992.18
2018-03-06T02:05:30.493Z,992.19
2018-03-06T02:06:30.438Z,992.18
2018-03-06T02:07:30.383Z,992.19
2018-03-06T02:08:30.331Z,992.20
2018-03-06T02:09:30.279Z,992.15
2018-03-06T02:10:30.226Z,992.18
2018-03-06T02:11:30.170Z,992.21
2018-03-06T02:12:30.117Z,992.17
2018-03-06T02:13:30.063Z,992.11
2018-03-06T02:14:30.010Z,992.16
2018-03-06T02:15:29.956Z,992.10
2018-03-06T02:16:29.903Z,992.06
2018-03-06T02:17:29.850Z,992.11
2018-03-06T02:18:29.797Z,992.07
2018-03-06T02:19:29.743Z,992.06
2018-03-06T02:20:29.689Z,992.05
2018-03-06T02:21:29.639Z,992.03
2018-03-06T02:22:29.583Z,992.03
2018-03-06T02:23:29.529Z,992.01
2018-03-06T02:24:29.476Z,992.02
2018-03-06T02:25:29.422Z,992.01
2018-03-06T02:26:29.369Z,992.03
2018-03-06T02:27:29.315Z,992.03
2018-03-06T02:28:29.265Z,991.98
2018-03-06T02:29:29.209Z,991.95
2018-03-06T02:30:29.206Z,991.96
2018-03-06T02:31:29.102Z,991.91
2018-03-06T02:32:29.048Z,991.94
2018-03-06T02:33:28.997Z,991.95
2018-03-06T02:34:28.943Z,991.91
2018-03-06T02:35:28.890Z,991.93
2018-03-06T02:36:28.834Z,991.86
2018-03-06T02:37:28.781Z,991.88
2018-03-06T02:38:28.728Z,991.83
2018-03-06T02:39:28.674Z,991.84
2018-03-06T02:40:28.621Z,991.78
2018-03-06T02:41:28.569Z,991.80
2018-03-06T02:42:28.514Z,991.78
2018-03-06T02:43:28.462Z,991.80
2018-03-06T02:44:28.407Z,991.79
2018-03-06T02:45:28.354Z,991.77
2018-03-06T02:46:28.300Z,991.79
2018-03-06T02:47:28.247Z,991.79
2018-03-06T02:48:28.194Z,991.81
2018-03-06T02:49:28.140Z,991.83
2018-03-06T02:50:28.087Z,991.80
2018-03-06T02:51:28.033Z,991.77
2018-03-06T02:52:27.979Z,991.79
2018-03-06T02:53:27.927Z,991.82
2018-03-06T02:54:27.873Z,991.76
2018-03-06T02:55:27.819Z,991.80
2018-03-06T02:56:27.766Z,991.75
2018-03-06T02:57:27.713Z,991.74
2018-03-06T02:58:27.661Z,991.76
2018-03-06T02:59:27.605Z,991.76
2018-03-06T03:00:27.552Z,991.80
2018-03-06T03:01:27.499Z,991.82
2018-03-06T03:02:27.445Z,991.80
2018-03-06T03:03:27.391Z,991.80
2018-03-06T03:04:27.339Z,991.75
2018-03-06T03:05:27.285Z,991.78
2018-03-06T03:06:27.232Z,991.78
2018-03-06T03:07:27.177Z,991.80
2018-03-06T03:08:27.125Z,991.76
2018-03-06T03:09:27.071Z,991.79
2018-03-06T03:10:27.024Z,991.78
2018-03-06T03:11:26.963Z,991.71
2018-03-06T03:12:26.910Z,991.76
2018-03-06T03:13:26.858Z,991.70
2018-03-06T03:14:26.804Z,991.75
2018-03-06T03:15:26.750Z,991.73
2018-03-06T03:16:26.697Z,991.72
2018-03-06T03:17:26.643Z,991.67
2018-03-06T03:18:26.590Z,991.70
2018-03-06T03:19:26.536Z,991.73
2018-03-06T03:20:26.483Z,991.74
2018-03-06T03:21:26.429Z,991.68
2018-03-06T03:22:26.376Z,991.69
2018-03-06T03:23:26.321Z,991.71
2018-03-06T03:24:26.269Z,991.68
2018-03-06T03:25:26.217Z,991.67
2018-03-06T03:26:26.162Z,991.69
2018-03-06T03:27:26.108Z,991.69
2018-03-06T03:28:26.056Z,991.70
2018-03-06T03:29:26.001Z,991.73
2018-03-06T03:30:25.950Z,991.69
2018-03-06T03:31:25.895Z,991.67
2018-03-06T03:32:25.840Z,991.70
2018-03-06T03:33:25.788Z,991.67
2018-03-06T03:34:25.734Z,991.70
2018-03-06T03:35:25.679Z,991.68
2018-03-06T03:36:25.626Z,991.62
2018-03-06T03:37:25.573Z,991.62
2018-03-06T03:38:25.519Z,991.64
2018-03-06T03:39:25.466Z,991.64
2018-03-06T03:40:25.411Z,991.63
2018-03-06T03:41:25.359Z,991.56
2018-03-06T03:42:25.307Z,991.59
2018-03-06T03:43:25.252Z,991.52
2018-03-06T03:44:25.197Z,991.52
2018-03-06T03:45:25.144Z,991.51
2018-03-06T03:46:25.091Z,991.54
2018-03-06T03:47:25.036Z,991.49
2018-03-06T03:48:24.982Z,991.47
2018-03-06T03:49:24.932Z,991.47
2018-03-06T03:50:24.876Z,991.47
2018-03-06T03:51:24.821Z,991.43
2018-03-06T03:52:24.768Z,991.47
2018-03-06T03:53:24.714Z,991.41
2018-03-06T03:54:24.661Z,991.43
2018-03-06T03:55:24.607Z,991.38
2018-03-06T03:56:24.654Z,991.42
2018-03-06T03:57:24.500Z,991.42
2018-03-06T03:58:24.446Z,991.41
2018-03-06T03:59:24.392Z,991.40
2018-03-06T04:00:24.340Z,991.42
2018-03-06T04:01:24.288Z,991.40
2018-03-06T04:02:24.240Z,991.40
2018-03-06T04:03:24.178Z,991.38
2018-03-06T04:04:24.125Z,991.37
2018-03-06T04:05:24.072Z,991.38
2018-03-06T04:06:24.018Z,991.38
2018-03-06T04:07:23.964Z,991.38
2018-03-06T04:08:23.913Z,991.37
2018-03-06T04:09:23.857Z,991.38
2018-03-06T04:10:23.803Z,991.37
2018-03-06T04:11:23.754Z,991.37
2018-03-06T04:12:23.697Z,991.36
2018-03-06T04:13:23.643Z,991.36
2018-03-06T04:14:23.589Z,991.38
2018-03-06T04:15:23.535Z,991.36
2018-03-06T04:16:23.489Z,991.39
2018-03-06T04:17:23.434Z,991.41
2018-03-06T04:18:23.376Z,991.40
2018-03-06T04:19:23.322Z,991.39
2018-03-06T04:20:23.268Z,991.43
2018-03-06T04:21:23.214Z,991.42
2018-03-06T04:22:23.163Z,991.43
2018-03-06T04:23:23.106Z,991.41
2018-03-06T04:24:23.100Z,991.42
2018-03-06T04:25:23.002Z,991.41
2018-03-06T04:26:22.997Z,991.37
2018-03-06T04:27:22.894Z,991.34
2018-03-06T04:28:22.840Z,991.37
2018-03-06T04:29:22.788Z,991.32
2018-03-06T04:30:22.733Z,991.32
2018-03-06T04:31:22.682Z,991.34
2018-03-06T04:32:22.626Z,991.36
2018-03-06T04:33:22.573Z,991.36
2018-03-06T04:34:22.520Z,991.34
2018-03-06T04:35:22.465Z,991.32
2018-03-06T04:36:22.412Z,991.32
2018-03-06T04:37:22.359Z,991.33
2018-03-06T04:38:22.305Z,991.31
2018-03-06T04:39:22.253Z,991.34
2018-03-06T04:40:22.198Z,991.31
2018-03-06T04:41:22.144Z,991.30
2018-03-06T04:42:22.091Z,991.30
2018-03-06T04:43:22.037Z,991.28
2018-03-06T04:44:21.984Z,991.28
2018-03-06T04:45:21.930Z,991.27
2018-03-06T04:46:21.879Z,991.26
2018-03-06T04:47:21.823Z,991.24
2018-03-06T04:48:21.770Z,991.21
2018-03-06T04:49:21.717Z,991.27
2018-03-06T04:50:21.665Z,991.26
2018-03-06T04:51:21.609Z,991.25
2018-03-06T04:52:21.556Z,991.21
2018-03-06T04:53:21.501Z,991.21
2018-03-06T04:54:21.450Z,991.20
2018-03-06T04:55:21.398Z,991.19
2018-03-06T04:56:21.342Z,991.21
2018-03-06T04:57:21.289Z,991.22
2018-03-06T04:58:21.236Z,991.23
2018-03-06T04:59:21.182Z,991.23
2018-03-06T05:00:21.129Z,991.18
2018-03-06T05:01:21.076Z,991.17
2018-03-06T05:02:21.025Z,991.15
2018-03-06T05:03:21.004Z,991.19
2018-03-06T05:04:20.915Z,991.18
2018-03-06T05:05:20.911Z,991.16
2018-03-06T05:06:20.809Z,991.20
2018-03-06T05:07:20.760Z,991.16
2018-03-06T05:08:20.701Z,991.17
2018-03-06T05:09:20.647Z,991.12
2018-03-06T05:10:20.595Z,991.07
2018-03-06T05:11:20.545Z,991.12
2018-03-06T05:12:20.487Z,991.12
2018-03-06T05:13:20.433Z,991.11
2018-03-06T05:14:20.381Z,991.12
2018-03-06T05:15:20.326Z,991.13
2018-03-06T05:16:20.274Z,991.08
2018-03-06T05:17:20.221Z,991.06
2018-03-06T05:18:20.179Z,991.07
2018-03-06T05:19:20.112Z,991.03
2018-03-06T05:20:20.059Z,991.04
2018-03-06T05:21:20.007Z,991.04
2018-03-06T05:22:19.952Z,991.04
2018-03-06T05:23:19.898Z,990.99
2018-03-06T05:24:19.845Z,991.01
2018-03-06T05:25:19.791Z,991.00
2018-03-06T05:26:19.739Z,991.01
2018-03-06T05:27:19.689Z,991.02
2018-03-06T05:28:19.630Z,991.05
2018-03-06T05:29:19.578Z,991.04
2018-03-06T05:30:19.524Z,991.04
2018-03-06T05:31:19.470Z,991.04
2018-03-06T05:32:19.417Z,991.03
2018-03-06T05:33:19.366Z,991.02
2018-03-06T05:34:19.310Z,991.02
2018-03-06T05:35:19.256Z,991.03
2018-03-06T05:36:19.203Z,990.98
2018-03-06T05:37:19.149Z,991.01
2018-03-06T05:38:19.097Z,991.03
2018-03-06T05:39:19.041Z,991.05
2018-03-06T05:40:18.992Z,991.01
2018-03-06T05:41:18.935Z,991.01
2018-03-06T05:42:18.882Z,990.98
2018-03-06T05:43:18.827Z,991.01
2018-03-06T05:44:18.773Z,991.00
2018-03-06T05:45:18.770Z,991.00
2018-03-06T05:46:18.666Z,990.98
2018-03-06T05:47:18.612Z,990.98
2018-03-06T05:48:18.559Z,990.94
2018-03-06T05:49:18.506Z,990.97
2018-03-06T05:50:18.453Z,990.98
2018-03-06T05:51:18.398Z,991.00
2018-03-06T05:52:18.345Z,990.99
2018-03-06T05:53:18.292Z,991.02
2018-03-06T05:54:18.238Z,991.01
2018-03-06T05:55:18.184Z,990.97
2018-03-06T05:56:18.130Z,990.99
2018-03-06T05:57:18.127Z,990.97
2018-03-06T05:58:18.024Z,990.99
2018-03-06T05:59:17.969Z,990.99
2018-03-06T06:00:17.919Z,991.00
2018-03-06T06:01:17.863Z,991.02
2018-03-06T06:02:17.810Z,991.02
2018-03-06T06:03:17.755Z,991.00
2018-03-06T06:04:17.702Z,991.05
2018-03-06T06:05:17.650Z,991.04
2018-03-06T06:06:17.595Z,991.07
2018-03-06T06:07:17.541Z,991.09
2018-03-06T06:08:17.488Z,991.07
2018-03-06T06:09:17.434Z,991.11
2018-03-06T06:10:17.382Z,991.10
2018-03-06T06:11:17.326Z,991.14
2018-03-06T06:12:17.273Z,991.13
2018-03-06T06:13:17.219Z,991.16
2018-03-06T06:14:17.165Z,991.19
2018-03-06T06:15:17.112Z,991.13
2018-03-06T06:16:17.059Z,991.16
2018-03-06T06:17:17.006Z,991.16
2018-03-06T06:18:16.953Z,991.17
2018-03-06T06:19:16.921Z,991.15
2018-03-06T06:20:16.845Z,991.20
2018-03-06T06:21:16.797Z,991.20
2018-03-06T06:22:16.739Z,991.24
2018-03-06T06:23:16.685Z,991.19
2018-03-06T06:24:16.633Z,991.21
2018-03-06T06:25:16.579Z,991.25
2018-03-06T06:26:16.526Z,991.23
2018-03-06T06:27:16.473Z,991.21
2018-03-06T06:28:16.421Z,991.24
2018-03-06T06:29:16.369Z,991.23
2018-03-06T06:30:16.314Z,991.27
2018-03-06T06:31:16.260Z,991.27
2018-03-06T06:32:16.206Z,991.25
2018-03-06T06:33:16.155Z,991.24
2018-03-06T06:34:16.101Z,991.25
2018-03-06T06:35:16.069Z,991.29
2018-03-06T06:36:15.995Z,991.30
2018-03-06T06:37:15.942Z,991.31
2018-03-06T06:38:15.888Z,991.30
2018-03-06T06:39:15.874Z,991.27
2018-03-06T06:40:15.786Z,991.28
2018-03-06T06:41:15.730Z,991.30
2018-03-06T06:42:15.684Z,991.26
2018-03-06T06:43:15.625Z,991.25
2018-03-06T06:44:15.572Z,991.26
2018-03-06T06:45:15.518Z,991.29
2018-03-06T06:46:15.467Z,991.29
2018-03-06T06:47:15.413Z,991.30
2018-03-06T06:48:15.361Z,991.24
2018-03-06T06:49:15.308Z,991.30
2018-03-06T06:50:15.256Z,991.29
2018-03-06T06:51:15.203Z,991.27
2018-03-06T06:52:15.151Z,991.25
2018-03-06T06:53:15.098Z,991.24
2018-03-06T06:54:15.047Z,991.27
2018-03-06T06:55:14.995Z,991.26
2018-03-06T06:56:14.943Z,991.25
2018-03-06T06:57:14.890Z,991.24
2018-03-06T06:58:14.839Z,991.23
2018-03-06T06:59:14.785Z,991.22
2018-03-06T07:00:14.734Z,991.29
2018-03-06T07:01:14.682Z,991.29
2018-03-06T07:02:14.636Z,991.28
2018-03-06T07:03:14.578Z,991.25
2018-03-06T07:04:14.628Z,991.29
2018-03-06T07:05:14.475Z,991.25
2018-03-06T07:06:14.424Z,991.29
2018-03-06T07:07:14.372Z,991.30
2018-03-06T07:08:14.321Z,991.29
2018-03-06T07:09:14.271Z,991.30
2018-03-06T07:10:14.270Z,991.26
2018-03-06T07:11:14.168Z,991.32
2018-03-06T07:12:14.167Z,991.30
2018-03-06T07:13:14.095Z,991.31
2018-03-06T07:14:14.020Z,991.35
2018-03-06T07:15:13.967Z,991.31
2018-03-06T07:16:13.914Z,991.35
2018-03-06T07:17:13.863Z,991.38
2018-03-06T07:18:13.813Z,991.37
2018-03-06T07:19:13.762Z,991.36
2018-03-06T07:20:13.712Z,991.40
2018-03-06T07:21:13.682Z,991.40
2018-03-06T07:22:13.612Z,991.39
2018-03-06T07:23:13.562Z,991.44
2018-03-06T07:24:13.518Z,991.47
2018-03-06T07:25:13.463Z,991.46
2018-03-06T07:26:13.413Z,991.44
2018-03-06T07:27:13.362Z,991.45
2018-03-06T07:28:13.316Z,991.49
2018-03-06T07:29:13.264Z,991.46
2018-03-06T07:30:13.213Z,991.51
2018-03-06T07:31:13.170Z,991.50
2018-03-06T07:32:13.115Z,991.50
2018-03-06T07:33:13.067Z,991.48
2018-03-06T07:34:13.018Z,991.49
2018-03-06T07:35:12.968Z,991.52
2018-03-06T07:36:13.007Z,991.51
2018-03-06T07:37:12.870Z,991.50
2018-03-06T07:38:12.821Z,991.53
2018-03-06T07:39:12.772Z,991.55
2018-03-06T07:40:12.723Z,991.54
2018-03-06T07:41:12.675Z,991.54
2018-03-06T07:42:12.626Z,991.54
2018-03-06T07:43:12.576Z,991.52
2018-03-06T07:44:12.533Z,991.58
2018-03-06T07:45:12.480Z,991.56
2018-03-06T07:46:12.431Z,991.52
2018-03-06T07:47:12.385Z,991.54
2018-03-06T07:48:12.337Z,991.50
2018-03-06T07:49:12.289Z,991.49
2018-03-06T07:50:12.241Z,991.53
2018-03-06T07:51:12.207Z,991.49
2018-03-06T07:52:12.145Z,991.48
2018-03-06T07:53:12.097Z,991.47
2018-03-06T07:54:12.051Z,991.51
2018-03-06T07:55:12.003Z,991.49
2018-03-06T07:56:11.955Z,991.47
2018-03-06T07:57:11.958Z,991.48
2018-03-06T07:58:11.861Z,991.49
2018-03-06T07:59:11.813Z,991.43
2018-03-06T08:00:11.768Z,991.45
2018-03-06T08:01:11.719Z,991.44
2018-03-06T08:02:11.673Z,991.51
2018-03-06T08:03:11.624Z,991.51
2018-03-06T08:04:11.577Z,991.51
2018-03-06T08:05:11.532Z,991.47
2018-03-06T08:06:11.485Z,991.47
2018-03-06T08:07:11.436Z,991.49
2018-03-06T08:08:11.393Z,991.48
2018-03-06T08:09:11.345Z,991.44
2018-03-06T08:10:11.301Z,991.45
2018-03-06T08:11:11.254Z,991.48
2018-03-06T08:12:11.204Z,991.46
2018-03-06T08:13:11.158Z,991.51
2018-03-06T08:14:11.111Z,991.46
2018-03-06T08:15:11.065Z,991.49
2018-03-06T08:16:11.022Z,991.44
2018-03-06T08:17:10.972Z,991.48
2018-03-06T08:18:10.928Z,991.50
2018-03-06T08:19:10.882Z,991.52
2018-03-06T08:20:10.834Z,991.54
2018-03-06T08:21:10.790Z,991.53
2018-03-06T08:22:10.742Z,991.56
2018-03-06T08:23:10.697Z,991.57
2018-03-06T08:24:10.658Z,991.57
2018-03-06T08:25:10.604Z,991.59
2018-03-06T08:26:10.558Z,991.59
2018-03-06T08:27:10.514Z,991.61
2018-03-06T08:28:10.466Z,991.62
2018-03-06T08:29:10.421Z,991.54
2018-03-06T08:30:10.376Z,991.52
2018-03-06T08:31:10.335Z,991.52
2018-03-06T08:32:10.284Z,991.48
2018-03-06T08:33:10.240Z,991.48
2018-03-06T08:34:10.195Z,991.51
2018-03-06T08:35:10.149Z,991.47
2018-03-06T08:36:10.104Z,991.50
2018-03-06T08:37:10.060Z,991.52
2018-03-06T08:38:10.015Z,991.56
2018-03-06T08:39:09.970Z,991.52
2018-03-06T08:40:09.926Z,991.55
2018-03-06T08:41:09.882Z,991.56
2018-03-06T08:42:09.844Z,991.59
2018-03-06T08:43:09.793Z,991.62
2018-03-06T08:44:09.749Z,991.57
2018-03-06T08:45:09.705Z,991.61
2018-03-06T08:46:09.660Z,991.65
2018-03-06T08:47:09.616Z,991.61
2018-03-06T08:48:09.573Z,991.60
2018-03-06T08:49:09.529Z,991.68
2018-03-06T08:50:09.486Z,991.69
2018-03-06T08:51:09.440Z,991.64
2018-03-06T08:52:09.398Z,991.65
2018-03-06T08:53:09.355Z,991.64
2018-03-06T08:54:09.317Z,991.65
2018-03-06T08:55:09.267Z,991.59
2018-03-06T08:56:09.223Z,991.60
2018-03-06T08:57:09.181Z,991.54
2018-03-06T08:58:09.138Z,991.57
2018-03-06T08:59:09.099Z,991.58
2018-03-06T09:00:09.050Z,991.54
2018-03-06T09:01:09.008Z,991.52
2018-03-06T09:02:08.965Z,991.50
2018-03-06T09:03:08.924Z,991.47
2018-03-06T09:04:08.879Z,991.48
2018-03-06T09:05:08.837Z,991.46
2018-03-06T09:06:08.794Z,991.50
2018-03-06T09:07:08.750Z,991.48
2018-03-06T09:08:08.707Z,991.46
2018-03-06T09:09:08.665Z,991.43
2018-03-06T09:10:08.621Z,991.45
2018-03-06T09:11:08.579Z,991.43
2018-03-06T09:12:08.536Z,991.40
2018-03-06T09:13:08.492Z,991.38
2018-03-06T09:14:08.450Z,991.36
2018-03-06T09:15:08.411Z,991.35
2018-03-06T09:16:08.364Z,991.36
2018-03-06T09:17:08.321Z,991.33
2018-03-06T09:18:08.277Z,991.36
2018-03-06T09:19:08.234Z,991.35
2018-03-06T09:20:08.191Z,991.35
2018-03-06T09:21:08.148Z,991.34
2018-03-06T09:22:08.118Z,991.34
2018-03-06T09:23:08.062Z,991.29
2018-03-06T09:24:08.022Z,991.31
2018-03-06T09:25:08.025Z,991.29
2018-03-06T09:26:07.931Z,991.28
2018-03-06T09:27:07.890Z,991.31
2018-03-06T09:28:07.844Z,991.30
2018-03-06T09:29:07.799Z,991.28
2018-03-06T09:30:07.757Z,991.28
2018-03-06T09:31:07.712Z,991.29
2018-03-06T09:32:07.669Z,991.28
2018-03-06T09:33:07.625Z,991.28
2018-03-06T09:34:07.582Z,991.31
2018-03-06T09:35:07.537Z,991.32
2018-03-06T09:36:07.493Z,991.29
2018-03-06T09:37:07.449Z,991.27
2018-03-06T09:38:07.406Z,991.23
2018-03-06T09:39:07.361Z,991.26
2018-03-06T09:40:07.318Z,991.27
2018-03-06T09:41:07.274Z,991.27
2018-03-06T09:42:07.229Z,991.25
2018-03-06T09:43:07.185Z,991.25
2018-03-06T09:44:07.145Z,991.25
2018-03-06T09:45:07.098Z,991.24
2018-03-06T09:46:07.054Z,991.14
2018-03-06T09:47:07.012Z,991.13
2018-03-06T09:48:06.963Z,991.10
2018-03-06T09:49:06.920Z,991.12
2018-03-06T09:50:06.877Z,991.12
2018-03-06T09:51:06.830Z,991.08
2018-03-06T09:52:06.787Z,991.04
2018-03-06T09:53:06.744Z,991.09
2018-03-06T09:54:06.698Z,991.09
2018-03-06T09:55:06.653Z,991.09
2018-03-06T09:56:06.610Z,991.10
2018-03-06T09:57:06.564Z,991.11
2018-03-06T09:58:06.519Z,991.10
2018-03-06T09:59:06.474Z,991.10
2018-03-06T10:00:06.429Z,991.11
2018-03-06T10:01:06.383Z,991.08
2018-03-06T10:02:06.339Z,991.07
2018-03-06T10:03:06.309Z,991.07
2018-03-06T10:04:06.247Z,991.09
2018-03-06T10:05:06.201Z,991.07
2018-03-06T10:06:06.164Z,991.10
2018-03-06T10:07:06.113Z,991.07
2018-03-06T10:08:06.080Z,991.09
2018-03-06T10:09:06.020Z,991.10
2018-03-06T10:10:05.974Z,991.06
2018-03-06T10:11:05.927Z,991.10
2018-03-06T10:12:05.882Z,991.08
2018-03-06T10:13:05.836Z,991.05
2018-03-06T10:14:05.791Z,991.07
2018-03-06T10:15:05.744Z,991.05
2018-03-06T10:16:05.699Z,991.08
2018-03-06T10:17:05.669Z,991.09
2018-03-06T10:18:05.608Z,991.03
2018-03-06T10:19:05.562Z,990.98
2018-03-06T10:20:05.516Z,990.99
2018-03-06T10:21:05.471Z,991.02
2018-03-06T10:22:05.425Z,991.01
2018-03-06T10:23:05.378Z,990.99
2018-03-06T10:24:05.338Z,990.99
2018-03-06T10:25:05.287Z,990.95
2018-03-06T10:26:05.242Z,990.97
2018-03-06T10:27:05.195Z,990.98
2018-03-06T10:28:05.188Z,990.91
2018-03-06T10:29:05.104Z,990.91
2018-03-06T10:30:05.058Z,990.89
2018-03-06T10:31:05.017Z,990.89
2018-03-06T10:32:04.966Z,990.85
2018-03-06T10:33:04.922Z,990.88
2018-03-06T10:34:04.875Z,990.87
2018-03-06T10:35:04.832Z,990.82
2018-03-06T10:36:04.783Z,990.88
2018-03-06T10:37:04.738Z,990.86
2018-03-06T10:38:04.692Z,990.82
2018-03-06T10:39:04.645Z,990.86
2018-03-06T10:40:04.601Z,990.84
2018-03-06T10:41:04.554Z,990.81
2018-03-06T10:42:04.508Z,990.79
2018-03-06T10:43:04.462Z,990.75
2018-03-06T10:44:04.416Z,990.74
2018-03-06T10:45:04.370Z,990.73
2018-03-06T10:46:04.324Z,990.71
2018-03-06T10:47:04.318Z,990.71
2018-03-06T10:48:04.231Z,990.71
2018-03-06T10:49:04.185Z,990.69
2018-03-06T10:50:04.140Z,990.72
2018-03-06T10:51:04.092Z,990.70
2018-03-06T10:52:04.050Z,990.74
2018-03-06T10:53:04.001Z,990.69
2018-03-06T10:54:03.963Z,990.75
2018-03-06T10:55:03.909Z,990.70
2018-03-06T10:56:03.862Z,990.75
2018-03-06T10:57:03.822Z,990.74
2018-03-06T10:58:03.771Z,990.66
2018-03-06T10:59:03.774Z,990.66
2018-03-06T11:00:03.679Z,990.60
2018-03-06T11:01:03.633Z,990.64
2018-03-06T11:02:03.587Z,990.59
2018-03-06T11:03:03.541Z,990.60
2018-03-06T11:04:03.495Z,990.56
2018-03-06T11:05:03.449Z,990.54
2018-03-06T11:06:03.406Z,990.51
2018-03-06T11:07:03.358Z,990.54
2018-03-06T11:08:03.312Z,990.48
2018-03-06T11:09:03.268Z,990.54
2018-03-06T11:10:03.224Z,990.48
2018-03-06T11:11:03.173Z,990.52
2018-03-06T11:12:03.127Z,990.45
2018-03-06T11:13:03.081Z,990.48
2018-03-06T11:14:03.034Z,990.53
2018-03-06T11:15:02.988Z,990.50
2018-03-06T11:16:02.943Z,990.46
2018-03-06T11:17:02.897Z,990.46
2018-03-06T11:18:02.852Z,990.47
2018-03-06T11:19:02.812Z,990.46
2018-03-06T11:20:02.759Z,990.42
2018-03-06T11:21:02.714Z,990.37
2018-03-06T11:22:02.717Z,990.38
2018-03-06T11:23:02.640Z,990.41
2018-03-06T11:24:02.576Z,990.36
2018-03-06T11:25:02.573Z,990.37
2018-03-06T11:26:02.481Z,990.34
2018-03-06T11:27:02.436Z,990.35
2018-03-06T11:28:02.390Z,990.30
2018-03-06T11:29:02.344Z,990.28
2018-03-06T11:30:02.299Z,990.29
2018-03-06T11:31:02.252Z,990.28
2018-03-06T11:32:02.207Z,990.27
2018-03-06T11:33:02.161Z,990.25
2018-03-06T11:34:02.214Z,990.24
2018-03-06T11:35:02.069Z,990.19
2018-03-06T11:36:02.023Z,990.18
2018-03-06T11:37:01.977Z,990.18
2018-03-06T11:38:01.932Z,990.16
2018-03-06T11:39:01.886Z,990.20
2018-03-06T11:40:01.840Z,990.17
2018-03-06T11:41:01.797Z,990.11
2018-03-06T11:42:01.748Z,990.11
2018-03-06T11:43:01.702Z,990.10
2018-03-06T11:44:01.656Z,990.11
2018-03-06T11:45:01.610Z,990.10
2018-03-06T11:46:01.565Z,990.15
2018-03-06T11:47:01.567Z,990.12
2018-03-06T11:48:01.472Z,990.09
2018-03-06T11:49:01.426Z,990.12
2018-03-06T11:50:01.381Z,990.13
2018-03-06T11:51:01.334Z,990.07
2018-03-06T11:52:01.289Z,990.05
2018-03-06T11:53:01.243Z,990.02
2018-03-06T11:54:01.196Z,990.01
2018-03-06T11:55:01.154Z,990.02
2018-03-06T11:56:01.146Z,990.02
2018-03-06T11:57:01.059Z,990.03
2018-03-06T11:58:01.014Z,990.02
2018-03-06T11:59:00.966Z,990.04
2018-03-06T12:00:00.923Z,989.99
2018-03-06T12:01:00.876Z,989.97
2018-03-06T12:02:00.875Z,989.93
2018-03-06T12:03:00.783Z,989.94
2018-03-06T12:04:00.737Z,989.96
2018-03-06T12:05:00.692Z,989.92
2018-03-06T12:06:00.646Z,989.95
2018-03-06T12:07:00.598Z,989.88
2018-03-06T12:08:00.559Z,989.88
2018-03-06T12:09:00.514Z,989.83
2018-03-06T12:10:00.463Z,989.83
2018-03-06T12:11:00.466Z,989.84
2018-03-06T12:12:00.369Z,989.86
2018-03-06T12:13:00.324Z,989.85
2018-03-06T12:14:00.277Z,989.84
2018-03-06T12:15:00.231Z,989.82
2018-03-06T12:16:00.186Z,989.82
2018-03-06T12:17:00.140Z,989.81
2018-03-06T12:18:00.096Z,989.82
2018-03-06T12:19:00.048Z,989.81
2018-03-06T12:20:00.002Z,989.79
2018-03-06T12:20:59.959Z,989.80
2018-03-06T12:21:59.909Z,989.75
2018-03-06T12:22:59.863Z,989.78
2018-03-06T12:23:59.817Z,989.75
2018-03-06T12:24:59.772Z,989.70
2018-03-06T12:25:59.725Z,989.74
2018-03-06T12:26:59.682Z,989.68
2018-03-06T12:27:59.633Z,989.70